Terminal Aerodrome Forecast
Issued by NWS Twin Cities, MN

Home | Current Version | Previous Version | Graphics & Text | Print | Product List | Glossary On
Versions: 1 2 3 4 5 6 7 8 9 10 11 12 13 14 15 16 17 18 19 20 21 22 23 24 25 26 27 28 29 30
017
FTUS43 KMPX 070854 AAA
TAFMSP
TAF AMD
KMSP 070854Z 0709/0812 22007KT P6SM SCT090
     FM071200 27012G20KT P6SM SCT050 BKN120
     FM072200 30018G32KT 2SM -SHSN BLSN OVC020=

USA.gov is the U.S. government's official web portal to all federal, state and local government web resources and services.